Time;durP1;ratioP1;P1;durP2;ratioP2;P2;SDS_P1;SDS_P2;PMS_P1;PMS_P2;Temp;Humidity;BMP_temperature;BMP_pressure;BME280_temperature;BME280_humidity;BME280_pressure;Samples;Min_cycle;Max_cycle;Signal;HPM_P1;HPM_P2
2022/07/24 00:01:46;;;;;;;3.70;2.47;;;15.20;68.40;;;15.04;63.85;101451.47;5045836;28;20446;-70
2022/07/24 00:04:15;;;;;;;3.40;1.77;;;15.10;70.60;;;15.10;63.59;101445.09;5051546;28;20463;-71
2022/07/24 00:06:44;;;;;;;3.60;1.73;;;15.10;71.70;;;15.08;63.96;101447.22;5047775;28;20406;-72
2022/07/24 00:09:14;;;;;;;2.40;1.53;;;15.10;74.20;;;15.05;63.80;101447.69;5049333;28;20439;-72
2022/07/24 00:11:43;;;;;;;2.03;1.53;;;15.10;73.70;;;15.06;63.88;101443.03;5054285;28;20924;-70
2022/07/24 00:14:12;;;;;;;2.47;1.83;;;15.10;75.20;;;15.00;64.31;101450.22;5055419;28;20513;-71
2022/07/24 00:16:41;;;;;;;3.53;2.53;;;15.00;78.90;;;14.96;64.36;101457.13;5049218;28;20604;-72
2022/07/24 00:19:11;;;;;;;6.33;1.90;;;15.00;80.70;;;14.88;64.76;101457.41;5049547;28;20780;-71
2022/07/24 00:21:39;;;;;;;3.97;2.27;;;15.00;83.10;;;14.84;65.14;101458.88;5050235;28;20496;-72
2022/07/24 00:24:09;;;;;;;2.83;1.90;;;14.90;87.90;;;15.01;64.83;101456.47;5054631;28;20969;-71
2022/07/24 00:26:39;;;;;;;2.27;1.67;;;15.00;89.30;;;14.99;64.90;101455.88;5053346;28;21089;-71
2022/07/24 00:29:08;;;;;;;5.40;1.40;;;15.00;90.20;;;14.90;65.27;101460.75;5054474;28;20413;-71
2022/07/24 00:31:37;;;;;;;1.63;1.10;;;15.00;90.80;;;14.84;65.72;101460.78;5053361;28;20481;-71
2022/07/24 00:34:06;;;;;;;3.20;1.73;;;14.90;92.90;;;14.85;65.64;101471.47;5055559;28;20461;-70
2022/07/24 00:36:35;;;;;;;2.10;1.47;;;14.90;93.80;;;14.89;65.65;101469.97;5046781;28;20972;-71
2022/07/24 00:39:04;;;;;;;3.30;1.50;;;14.80;94.40;;;14.85;65.88;101463.28;5046683;28;20435;-71
2022/07/24 00:41:33;;;;;;;1.70;1.60;;;14.80;94.60;;;14.77;66.13;101464.34;5058481;28;20401;-71
2022/07/24 00:44:07;;;;;;;3.27;1.70;;;14.80;95.50;;;14.77;66.21;101458.06;5056966;28;20976;-70
2022/07/24 00:46:38;;;;;;;6.03;1.47;;;14.80;96.10;;;14.71;66.52;101461.69;5050620;28;20480;-70
2022/07/24 00:49:12;;;;;;;3.47;1.97;;;14.70;96.80;;;14.70;66.57;101462.72;5049802;28;20443;-72
2022/07/24 00:51:49;;;;;;;2.77;1.90;;;14.70;97.50;;;14.65;66.75;101465.25;5055458;28;20487;-71
2022/07/24 00:54:20;;;;;;;4.70;2.47;;;14.70;98.10;;;14.63;67.02;101470.91;5037482;28;20521;-71
2022/07/24 00:56:52;;;;;;;2.00;1.80;;;14.70;98.90;;;14.50;67.61;101472.84;5062231;28;20459;-70
2022/07/24 00:59:23;;;;;;;2.33;1.63;;;14.60;99.70;;;14.34;68.09;101466.78;5056244;28;20519;-69
2022/07/24 01:01:52;;;;;;;2.50;1.63;;;14.50;99.90;;;14.26;68.64;101480.63;5055560;28;20540;-70
2022/07/24 01:04:23;;;;;;;3.93;1.87;;;14.40;99.90;;;14.32;68.57;101478.94;5060283;28;20432;-71
2022/07/24 01:06:52;;;;;;;2.80;1.70;;;14.40;99.90;;;14.25;68.95;101478.09;5052235;28;20405;-71
2022/07/24 01:09:21;;;;;;;2.10;1.80;;;14.40;99.90;;;14.24;69.06;101482.69;5060571;28;20438;-72
2022/07/24 01:11:52;;;;;;;1.60;1.40;;;14.40;99.90;;;14.21;69.27;101477.69;5045055;28;20436;-71
2022/07/24 01:14:22;;;;;;;2.90;2.27;;;14.30;99.90;;;14.11;69.82;101484.63;5051863;28;20431;-71
2022/07/24 01:16:51;;;;;;;2.57;2.03;;;14.30;99.90;;;13.97;70.67;101485.69;5046332;28;20474;-71
2022/07/24 01:19:20;;;;;;;1.53;1.40;;;14.20;99.90;;;13.88;71.28;101477.72;5063547;28;20436;-71
2022/07/24 01:21:54;;;;;;;2.50;2.30;;;14.10;99.90;;;13.85;71.68;101480.84;5060424;28;20501;-71
2022/07/24 01:24:23;;;;;;;2.53;1.80;;;14.00;99.90;;;13.82;72.23;101483.16;5057856;28;20442;-71
2022/07/24 01:26:52;;;;;;;2.20;1.50;;;14.00;99.90;;;13.76;72.72;101479.41;5028380;28;20479;-71
2022/07/24 01:29:21;;;;;;;2.70;1.83;;;13.90;99.90;;;13.69;73.12;101484.00;5056989;28;20435;-71
2022/07/24 01:31:50;;;;;;;3.20;2.13;;;13.90;99.90;;;13.69;73.69;101480.44;5050021;28;20463;-71
2022/07/24 01:34:19;;;;;;;3.33;2.00;;;13.80;99.90;;;13.68;73.73;101476.03;5058171;28;20466;-70
2022/07/24 01:36:50;;;;;;;1.87;1.50;;;13.80;99.90;;;13.71;73.95;101475.63;5054073;28;20905;-70
2022/07/24 01:39:18;;;;;;;2.27;1.67;;;13.80;99.90;;;13.65;74.24;101479.19;5047905;28;20439;-72
2022/07/24 01:41:47;;;;;;;2.00;1.80;;;13.80;99.90;;;13.60;74.58;101487.13;5050707;28;20774;-71
2022/07/24 01:44:16;;;;;;;2.57;1.60;;;13.80;99.90;;;13.66;74.79;101489.00;5048127;28;20439;-70
2022/07/24 01:46:45;;;;;;;2.97;1.73;;;13.80;99.90;;;13.70;74.92;101479.41;5051317;28;20435;-70
2022/07/24 01:49:14;;;;;;;2.17;1.60;;;13.80;99.90;;;13.72;74.38;101482.75;5050774;28;20840;-70
2022/07/24 01:51:43;;;;;;;3.20;2.00;;;13.80;99.90;;;13.62;74.86;101482.31;5041942;28;20491;-70
2022/07/24 01:54:14;;;;;;;2.17;1.70;;;13.80;99.90;;;13.64;74.92;101491.13;5042258;28;20455;-71
2022/07/24 01:56:43;;;;;;;3.83;1.90;;;13.80;99.90;;;13.51;74.91;101496.53;5042755;28;20473;-69
2022/07/24 01:59:12;;;;;;;5.07;1.83;;;13.70;99.90;;;13.56;74.87;101494.00;5047928;28;20774;-70
2022/07/24 02:01:42;;;;;;;2.43;2.03;;;13.70;99.90;;;13.45;74.91;101492.75;5037714;28;20436;-71
2022/07/24 02:04:11;;;;;;;1.90;1.70;;;13.60;99.90;;;13.44;75.07;101496.53;5046778;28;20821;-70
2022/07/24 02:06:40;;;;;;;3.80;1.47;;;13.60;99.90;;;13.47;74.68;101496.94;5043271;28;20494;-71
2022/07/24 02:09:08;;;;;;;3.00;1.93;;;13.60;99.90;;;13.44;74.89;101493.81;5052460;28;20925;-71
2022/07/24 02:11:39;;;;;;;2.53;1.83;;;13.60;99.90;;;13.44;74.84;101491.91;5047210;28;20461;-70
2022/07/24 02:14:07;;;;;;;2.10;1.50;;;13.60;99.90;;;13.26;75.32;101488.97;5052472;28;20459;-71
2022/07/24 02:16:37;;;;;;;2.77;1.93;;;13.40;99.90;;;13.12;75.88;101491.84;5051670;28;20466;-72
2022/07/24 02:19:06;;;;;;;2.57;1.90;;;13.40;99.90;;;13.16;76.01;101483.09;5043246;28;20436;-70
2022/07/24 02:21:35;;;;;;;2.20;1.70;;;13.30;99.90;;;13.25;75.42;101486.44;5046406;28;20971;-72
2022/07/24 02:24:04;;;;;;;4.90;1.87;;;13.30;99.90;;;13.20;75.59;101489.78;5059206;28;20597;-70
2022/07/24 02:26:33;;;;;;;2.73;1.90;;;13.30;99.90;;;13.15;75.77;101486.00;5048521;28;20938;-71
2022/07/24 02:29:04;;;;;;;2.47;1.90;;;13.30;99.90;;;13.04;76.25;101484.66;5049237;28;20846;-70
2022/07/24 02:31:33;;;;;;;4.20;2.00;;;13.20;99.90;;;13.03;76.31;101494.69;5052184;28;20451;-71
2022/07/24 02:34:02;;;;;;;2.30;1.47;;;13.20;99.90;;;13.09;76.84;101490.34;5055476;28;20438;-70
2022/07/24 02:36:31;;;;;;;2.57;2.30;;;13.20;99.90;;;12.99;76.67;101477.13;5045671;28;20406;-71
2022/07/24 02:39:00;;;;;;;2.07;1.73;;;13.10;99.90;;;12.94;77.30;101490.50;5052889;28;20456;-71
2022/07/24 02:41:30;;;;;;;2.00;1.80;;;13.10;99.90;;;13.01;76.79;101483.22;5050418;28;20520;-71
2022/07/24 02:43:58;;;;;;;5.80;2.50;;;13.10;99.90;;;12.89;77.03;101486.69;5037908;28;20460;-71
2022/07/24 02:46:28;;;;;;;2.30;2.03;;;13.00;99.90;;;12.83;77.36;101482.09;5052348;28;20467;-71
2022/07/24 02:48:57;;;;;;;2.50;1.80;;;13.00;99.90;;;12.90;77.25;101493.81;5051722;28;20534;-71
2022/07/24 02:51:26;;;;;;;2.27;1.53;;;13.10;99.90;;;12.86;77.61;101492.53;5052643;28;20469;-72
2022/07/24 02:53:55;;;;;;;4.00;2.63;;;13.10;99.90;;;12.83;77.60;101493.78;5052075;28;20566;-71
2022/07/24 02:56:24;;;;;;;3.10;2.10;;;13.00;99.90;;;12.93;77.34;101504.25;5048470;28;20436;-72
2022/07/24 02:58:53;;;;;;;3.07;2.40;;;13.10;99.90;;;12.81;77.82;101501.31;5044407;28;20394;-71
2022/07/24 03:01:22;;;;;;;2.30;2.10;;;13.00;99.90;;;12.94;77.70;101505.94;5051480;28;20441;-72
2022/07/24 03:03:52;;;;;;;2.57;2.20;;;13.10;99.90;;;12.92;77.29;101503.44;5053636;28;20478;-71
2022/07/24 03:06:21;;;;;;;2.77;2.10;;;13.00;99.90;;;12.88;77.75;101504.03;5050344;28;20850;-72
2022/07/24 03:08:50;;;;;;;3.53;2.03;;;13.00;99.90;;;12.85;77.85;101507.16;5045352;28;20454;-72
2022/07/24 03:11:19;;;;;;;3.93;2.17;;;13.00;99.90;;;12.85;77.78;101507.16;5047557;28;20473;-71
2022/07/24 03:13:48;;;;;;;3.03;2.73;;;13.00;99.90;;;12.76;77.90;101511.94;5046969;28;20459;-73
2022/07/24 03:16:17;;;;;;;4.27;2.70;;;12.90;99.90;;;12.84;77.98;101510.91;5047673;28;20748;-71
2022/07/24 03:18:48;;;;;;;3.00;2.00;;;12.90;99.90;;;12.84;77.64;101517.19;5049599;28;20826;-71
2022/07/24 03:21:19;;;;;;;2.83;2.50;;;12.90;99.90;;;12.93;77.51;101515.13;5040682;28;20459;-71
2022/07/24 03:24:08;;;;;;;2.87;2.50;;;13.00;99.90;;;13.00;77.13;101521.44;5048054;28;20462;-71
2022/07/24 03:26:37;;;;;;;3.30;2.10;;;13.00;99.90;;;12.99;77.11;101525.19;5053258;28;20473;-72
2022/07/24 03:29:05;;;;;;;2.30;1.87;;;13.10;99.90;;;13.01;76.99;101529.41;5059603;28;20476;-72
2022/07/24 03:31:35;;;;;;;4.87;2.77;;;13.10;99.90;;;13.02;76.98;101532.97;5055546;28;20477;-71
2022/07/24 03:34:04;;;;;;;3.23;1.93;;;13.10;99.90;;;13.06;76.84;101528.78;5055902;28;20552;-70
2022/07/24 03:36:35;;;;;;;6.30;2.00;;;13.10;99.90;;;13.08;76.99;101529.41;5059306;28;20429;-71
2022/07/24 03:39:05;;;;;;;2.97;2.20;;;13.10;99.90;;;13.40;76.06;101526.00;5044976;28;20536;-71
2022/07/24 03:41:35;;;;;;;3.03;2.10;;;13.20;99.90;;;14.19;73.48;101528.78;5042606;28;20406;-71
2022/07/24 03:44:03;;;;;;;2.87;2.43;;;13.50;99.90;;;14.78;70.36;101523.25;5052678;28;20460;-71
2022/07/24 03:46:32;;;;;;;2.90;2.20;;;13.90;99.90;;;15.25;69.02;101526.59;5055722;28;20445;-71
2022/07/24 03:49:01;;;;;;;2.73;1.87;;;14.30;99.90;;;16.36;64.57;101526.91;5038600;28;20442;-72
2022/07/24 03:51:31;;;;;;;2.80;1.97;;;14.80;99.90;;;17.42;61.05;101531.97;5045099;28;20439;-70
2022/07/24 03:54:05;;;;;;;2.63;2.23;;;15.50;99.90;;;17.89;58.69;101539.28;5050295;28;20466;-71
2022/07/24 03:56:34;;;;;;;2.57;1.90;;;16.10;92.50;;;18.45;56.90;101543.38;5047092;28;20455;-71
2022/07/24 03:59:02;;;;;;;3.70;1.77;;;16.30;88.30;;;19.35;54.71;101544.56;5044783;28;20441;-72
2022/07/24 04:01:32;;;;;;;3.50;2.30;;;16.80;77.40;;;19.91;52.76;101542.88;5052616;28;20473;-72
2022/07/24 04:04:04;;;;;;;2.10;1.70;;;17.10;63.90;;;19.85;52.97;101544.69;5043389;28;20459;-71
2022/07/24 04:06:34;;;;;;;3.73;2.30;;;17.40;58.20;;;19.86;52.12;101540.03;5047290;28;20442;-72
2022/07/24 04:09:05;;;;;;;3.50;1.87;;;17.60;48.10;;;20.35;50.75;101539.25;5032275;28;20451;-72
2022/07/24 04:11:36;;;;;;;5.10;3.00;;;17.80;44.20;;;20.61;nan;101545.97;5055517;28;20470;-71
2022/07/24 04:14:05;;;;;;;3.00;2.40;;;18.00;40.70;;;21.09;49.23;101536.16;5049340;28;20557;-72
2022/07/24 04:16:34;;;;;;;4.30;2.13;;;18.20;39.30;;;20.98;49.77;101542.59;5049064;28;20791;-74
2022/07/24 04:19:03;;;;;;;3.40;1.60;;;18.30;38.60;;;21.36;48.02;101545.31;5051034;28;20439;-72
2022/07/24 04:21:35;;;;;;;4.10;2.23;;;18.50;33.70;;;21.64;47.63;101547.81;5049877;28;20447;-72
2022/07/24 04:24:06;;;;;;;2.70;1.57;;;18.90;31.10;;;21.37;47.90;101546.13;5039627;28;20438;-72
2022/07/24 04:26:35;;;;;;;3.00;2.40;;;19.00;28.20;;;21.86;46.88;101542.25;5049299;28;20425;-72
2022/07/24 04:29:04;;;;;;;3.70;2.10;;;19.20;26.90;;;22.25;46.09;101547.56;5044659;28;20443;-71
2022/07/24 04:31:33;;;;;;;2.37;1.87;;;19.30;26.20;;;22.30;45.52;101539.34;5047288;28;20503;-71
2022/07/24 04:34:02;;;;;;;1.93;1.67;;;19.50;24.50;;;22.55;44.86;101536.78;5048209;28;20462;-71
2022/07/24 04:36:31;;;;;;;2.90;1.73;;;19.80;22.40;;;22.54;44.72;101546.13;5049382;28;20429;-73
2022/07/24 04:39:00;;;;;;;1.83;1.47;;;19.80;20.80;;;22.66;44.72;101538.47;5049468;28;20567;-72
2022/07/24 04:41:37;;;;;;;1.90;1.60;;;19.90;20.00;;;21.99;45.66;101547.34;5045659;28;20926;-72
2022/07/24 04:44:06;;;;;;;2.33;1.60;;;20.10;18.20;;;22.62;44.56;101544.78;5050259;28;20523;-72
2022/07/24 04:46:35;;;;;;;2.13;1.80;;;20.10;18.70;;;22.48;44.75;101558.22;5049833;28;20410;-72
2022/07/24 04:49:04;;;;;;;2.13;1.83;;;20.30;18.00;;;23.06;43.70;101564.66;5046035;28;20521;-72
2022/07/24 04:51:33;;;;;;;1.93;1.60;;;20.30;17.60;;;22.88;43.98;101558.50;5037128;28;20456;-70
2022/07/24 04:54:02;;;;;;;2.50;1.43;;;20.40;16.70;;;23.37;43.41;101560.94;5053315;28;20459;-71
2022/07/24 04:56:32;;;;;;;1.80;1.53;;;20.30;17.40;;;23.75;42.35;101557.75;5052842;28;20446;-71
2022/07/24 04:59:03;;;;;;;2.13;1.90;;;20.60;15.90;;;23.45;42.69;101552.13;5054695;28;20511;-72
2022/07/24 05:01:32;;;;;;;2.43;1.93;;;20.70;15.90;;;23.56;42.83;101556.59;5049663;28;20476;-71
2022/07/24 05:04:01;;;;;;;3.17;1.83;;;20.80;14.70;;;23.18;43.32;101551.47;5055424;28;20804;-72
2022/07/24 05:06:30;;;;;;;3.43;1.77;;;20.80;14.30;;;23.78;42.56;101550.81;5053076;28;20516;-71
2022/07/24 05:08:59;;;;;;;2.53;1.80;;;21.10;13.90;;;23.26;43.16;101564.75;5038001;28;20513;-72
2022/07/24 05:11:28;;;;;;;2.43;2.07;;;20.80;12.70;;;24.11;41.65;101554.97;5053504;28;20509;-72
2022/07/24 05:13:58;;;;;;;2.87;1.90;;;21.10;12.90;;;24.00;42.32;101553.34;5057705;28;20470;-73
2022/07/24 05:16:28;;;;;;;2.30;2.10;;;20.90;13.90;;;23.74;42.17;101555.25;5060761;28;20422;-72
2022/07/24 05:18:57;;;;;;;3.03;1.47;;;20.90;12.30;;;24.10;41.82;101558.88;5057320;28;20545;-73
2022/07/24 05:21:26;;;;;;;2.37;1.50;;;20.70;13.00;;;24.46;41.24;101557.78;5050297;28;20432;-72
2022/07/24 05:23:56;;;;;;;2.03;1.37;;;21.00;13.40;;;24.89;40.26;101555.47;5052910;28;20441;-72
2022/07/24 05:26:25;;;;;;;3.33;1.53;;;21.20;11.70;;;25.47;39.03;101559.38;5048763;28;20428;-71
2022/07/24 05:28:54;;;;;;;4.90;1.90;;;21.80;10.60;;;25.36;39.76;101555.88;5051654;28;20443;-71
2022/07/24 05:31:23;;;;;;;2.27;1.53;;;21.60;10.70;;;26.20;37.77;101551.97;5051791;28;20459;-70
2022/07/24 05:33:54;;;;;;;1.70;1.03;;;22.00;9.70;;;25.90;38.35;101558.59;5051799;28;20557;-71
2022/07/24 05:36:23;;;;;;;2.93;1.83;;;22.10;8.40;;;24.42;40.54;101555.84;5050375;28;20409;-71
2022/07/24 05:38:52;;;;;;;1.50;1.10;;;21.80;8.10;;;21.89;45.55;101562.94;5056319;28;20964;-72
2022/07/24 05:41:21;;;;;;;1.90;1.30;;;20.80;10.40;;;20.01;50.05;101558.69;5056922;28;20530;-71
2022/07/24 05:43:50;;;;;;;1.50;1.07;;;19.90;13.10;;;19.15;53.16;101557.03;5058945;28;20732;-72
2022/07/24 05:46:19;;;;;;;2.00;1.20;;;19.20;17.30;;;18.31;55.30;101545.53;5057159;28;20414;-71
2022/07/24 05:48:48;;;;;;;1.90;1.40;;;18.30;20.00;;;18.13;56.06;101548.38;5053307;28;20414;-71
2022/07/24 05:51:18;;;;;;;2.43;1.50;;;18.10;23.20;;;17.98;56.72;101548.00;5051406;28;20942;-71
2022/07/24 05:53:47;;;;;;;2.23;1.63;;;17.80;25.40;;;17.85;57.38;101550.94;5059414;28;20512;-72
2022/07/24 05:56:16;;;;;;;1.73;1.13;;;17.70;27.10;;;17.74;57.35;101547.94;5049395;28;20428;-71
2022/07/24 05:58:45;;;;;;;2.27;1.63;;;17.50;29.10;;;17.81;57.68;101558.81;5056539;28;20489;-72
2022/07/24 06:01:19;;;;;;;1.70;1.30;;;17.50;32.10;;;17.91;57.85;101550.00;5060394;28;20409;-71
2022/07/24 06:03:48;;;;;;;2.53;1.40;;;17.50;34.40;;;18.23;57.22;101562.31;5057768;28;20509;-73
2022/07/24 06:06:18;;;;;;;2.47;1.63;;;17.80;35.30;;;17.94;57.06;101555.00;5063106;28;20432;-72
2022/07/24 06:08:47;;;;;;;1.80;1.13;;;17.80;31.60;;;17.90;57.16;101562.03;5060697;28;20578;-72
2022/07/24 06:11:17;;;;;;;1.83;1.53;;;17.70;32.00;;;18.07;56.37;101560.25;5050454;28;20960;-70
2022/07/24 06:13:46;;;;;;;1.87;1.20;;;17.80;31.60;;;17.77;56.32;101552.09;5054513;28;20461;-71
2022/07/24 06:16:16;;;;;;;1.70;1.30;;;17.70;29.50;;;17.58;57.33;101556.78;5060932;28;20832;-71
2022/07/24 06:18:45;;;;;;;1.60;1.03;;;17.50;31.20;;;17.79;56.75;101556.28;5054294;28;20826;-71
2022/07/24 06:21:13;;;;;;;2.33;1.20;;;17.60;31.10;;;18.06;56.15;101553.13;5056242;28;20443;-71
2022/07/24 06:23:44;;;;;;;1.40;1.10;;;17.80;31.00;;;18.03;55.70;101561.81;5060747;28;20433;-71
2022/07/24 06:26:13;;;;;;;1.47;1.13;;;17.80;29.20;;;18.02;55.71;101560.13;5051410;28;20450;-71
2022/07/24 06:28:41;;;;;;;1.63;1.40;;;17.80;29.20;;;18.19;55.83;101558.41;5047869;28;20469;-72
2022/07/24 06:31:10;;;;;;;1.97;1.10;;;17.90;29.80;;;18.40;55.19;101556.97;5053173;28;20454;-71
2022/07/24 06:33:45;;;;;;;2.13;1.50;;;18.10;29.00;;;18.47;54.40;101555.78;5058765;28;20494;-71
2022/07/24 06:36:14;;;;;;;1.80;1.27;;;18.20;27.40;;;18.39;54.77;101558.06;5039617;28;20658;-72
2022/07/24 06:38:44;;;;;;;1.50;1.20;;;18.20;27.50;;;18.38;54.63;101553.66;5061191;28;20435;-72
2022/07/24 06:41:13;;;;;;;1.70;1.10;;;18.20;27.00;;;18.53;54.76;101563.09;5041337;28;20951;-72
2022/07/24 06:43:43;;;;;;;1.70;1.13;;;18.30;27.40;;;18.52;54.25;101550.44;5049713;28;20808;-71
2022/07/24 06:46:11;;;;;;;1.50;1.17;;;18.40;25.90;;;18.31;55.03;101559.22;5060217;28;20469;-72
2022/07/24 06:48:40;;;;;;;1.87;1.10;;;18.30;26.10;;;18.48;54.80;101560.19;5059491;28;20801;-71
2022/07/24 06:51:09;;;;;;;1.60;1.00;;;18.30;26.60;;;18.82;54.24;101554.97;5049537;28;20470;-72
2022/07/24 06:53:40;;;;;;;2.10;1.20;;;18.50;26.50;;;19.02;53.40;101561.72;5044206;28;20968;-70
2022/07/24 06:56:11;;;;;;;1.83;1.43;;;18.70;26.00;;;19.04;53.66;101554.06;5053985;28;20803;-73
2022/07/24 06:58:39;;;;;;;4.60;1.70;;;18.70;25.60;;;19.32;53.16;101564.25;5049721;28;20791;-74
2022/07/24 07:01:08;;;;;;;1.50;1.20;;;19.00;24.60;;;19.31;53.19;101564.50;5056845;28;20940;-73
2022/07/24 07:03:37;;;;;;;1.63;1.20;;;19.00;24.00;;;19.45;52.61;101566.75;5057940;28;20861;-73
2022/07/24 07:06:07;;;;;;;2.37;1.20;;;19.20;23.40;;;19.57;52.23;101568.59;5053670;28;20798;-72
2022/07/24 07:08:36;;;;;;;3.40;1.00;;;19.30;22.50;;;19.72;52.31;101566.16;5050906;28;20443;-72
2022/07/24 07:11:05;;;;;;;2.20;1.40;;;19.40;22.90;;;19.59;51.75;101566.47;5050132;28;20514;-73
2022/07/24 07:13:35;;;;;;;1.50;1.10;;;19.50;21.30;;;19.48;52.73;101560.75;5047315;28;20430;-73
2022/07/24 07:16:05;;;;;;;2.50;1.30;;;19.40;21.90;;;19.64;52.03;101569.31;5048368;28;20445;-73
2022/07/24 07:18:35;;;;;;;2.60;1.27;;;19.40;21.60;;;19.68;51.94;101564.97;5049608;28;20468;-72
2022/07/24 07:21:08;;;;;;;3.30;1.43;;;19.50;21.20;;;19.80;51.91;101554.78;5046378;28;20452;-71
2022/07/24 07:23:37;;;;;;;1.77;1.30;;;19.50;21.50;;;20.05;50.58;101560.69;5049225;28;20433;-72
2022/07/24 07:26:06;;;;;;;1.67;1.57;;;19.70;19.90;;;20.08;50.17;101557.47;5050646;28;20449;-73
2022/07/24 07:28:36;;;;;;;1.70;1.37;;;19.80;18.90;;;20.11;50.78;101559.72;5044766;28;20445;-72
2022/07/24 07:31:05;;;;;;;2.03;1.50;;;19.90;18.70;;;20.09;50.60;101555.56;5046806;28;20922;-73
2022/07/24 07:33:34;;;;;;;1.80;1.00;;;20.00;18.30;;;20.00;50.55;101562.53;5047276;28;20437;-72
2022/07/24 07:36:04;;;;;;;1.40;1.17;;;19.90;17.90;;;20.04;49.30;101553.56;5038406;28;20421;-71
2022/07/24 07:38:35;;;;;;;2.40;1.17;;;19.90;16.30;;;20.07;49.69;101553.06;5047284;28;20417;-71
2022/07/24 07:41:04;;;;;;;2.10;1.27;;;19.90;16.50;;;20.25;49.86;101561.03;5049701;28;20623;-72
2022/07/24 07:43:35;;;;;;;2.60;1.10;;;20.00;17.20;;;20.01;49.68;101554.03;5047116;28;20425;-73
2022/07/24 07:46:04;;;;;;;1.70;1.30;;;19.90;16.00;;;20.19;49.27;101556.53;5042814;28;20443;-73
2022/07/24 07:48:33;;;;;;;1.80;1.33;;;20.00;15.80;;;20.22;49.29;101556.06;5050087;28;20475;-73
2022/07/24 07:51:02;;;;;;;1.70;0.90;;;20.00;16.00;;;20.42;48.97;101550.09;5047549;28;20409;-73
2022/07/24 07:53:31;;;;;;;1.80;1.30;;;20.10;15.30;;;20.71;49.45;101556.28;5049831;28;20438;-72
2022/07/24 07:56:01;;;;;;;2.17;1.30;;;20.40;16.30;;;20.69;48.07;101550.19;5049047;28;20440;-72
2022/07/24 07:58:30;;;;;;;1.77;0.90;;;20.50;14.30;;;20.88;47.51;101543.31;5044859;28;20939;-73
2022/07/24 08:01:00;;;;;;;2.07;1.30;;;20.60;13.10;;;21.10;47.30;101546.09;5047874;28;20956;-73
2022/07/24 08:03:29;;;;;;;1.90;1.17;;;20.80;13.20;;;21.18;46.03;101537.41;5051622;28;20471;-73
2022/07/24 08:05:58;;;;;;;2.13;1.17;;;21.00;11.20;;;21.27;45.67;101540.50;5050788;28;20463;-73
2022/07/24 08:08:27;;;;;;;2.40;1.20;;;21.00;10.40;;;21.22;45.88;101542.13;5048804;28;20542;-74
2022/07/24 08:10:56;;;;;;;4.17;1.50;;;21.00;10.20;;;21.58;45.98;101537.84;5041330;28;20418;-72
2022/07/24 08:13:26;;;;;;;2.10;1.33;;;21.30;10.80;;;21.92;45.07;101541.22;5051100;28;20964;-73
2022/07/24 08:15:55;;;;;;;2.80;1.30;;;21.50;9.60;;;21.74;43.71;101541.56;5044232;28;20413;-72
2022/07/24 08:18:25;;;;;;;2.07;1.10;;;21.60;7.40;;;21.40;43.76;101542.84;5051226;28;20426;-73
2022/07/24 08:20:54;;;;;;;1.97;1.10;;;21.30;1.00;;;21.15;44.08;101547.00;5048961;28;20450;-72
2022/07/24 08:23:23;;;;;;;2.40;1.10;;;21.20;1.00;;;20.82;45.43;101544.31;5050479;28;20864;-73
2022/07/24 08:25:52;;;;;;;1.40;1.00;;;20.90;1.00;;;20.85;46.41;101538.31;5050004;28;20913;-73
2022/07/24 08:28:22;;;;;;;1.87;1.67;;;20.80;1.00;;;21.23;45.97;101541.03;5054139;28;20421;-73
2022/07/24 08:30:51;;;;;;;2.53;0.93;;;21.00;1.00;;;21.59;45.49;101545.00;5055933;28;20417;-72
2022/07/24 08:33:20;;;;;;;1.47;1.00;;;21.30;1.00;;;22.08;44.03;101537.50;5045822;28;20442;-73
2022/07/24 08:35:51;;;;;;;1.67;1.10;;;21.60;1.00;;;22.43;42.62;101538.88;5054876;28;20492;-72
2022/07/24 08:38:20;;;;;;;1.40;1.07;;;22.00;1.00;;;22.46;42.57;101538.38;5055976;28;20445;-72
2022/07/24 08:40:48;;;;;;;1.93;1.33;;;22.20;1.00;;;22.42;41.64;101537.22;5054419;28;20467;-72
2022/07/24 08:43:17;;;;;;;2.30;1.10;;;22.30;1.00;;;22.40;42.38;101529.22;5049919;28;20822;-71
2022/07/24 08:45:48;;;;;;;1.50;1.07;;;22.20;1.00;;;22.51;42.10;101530.94;5051623;28;20440;-72
2022/07/24 08:48:21;;;;;;;1.50;1.10;;;22.30;1.00;;;22.74;41.64;101534.44;5060592;28;20454;-72
2022/07/24 08:50:53;;;;;;;1.40;0.87;;;22.40;1.00;;;22.92;40.79;101534.78;5048624;28;20473;-72
2022/07/24 08:53:23;;;;;;;2.30;1.30;;;22.60;1.00;;;22.51;40.84;101533.69;5052185;28;20509;-72
2022/07/24 08:55:52;;;;;;;1.47;1.13;;;22.40;1.00;;;22.49;40.71;101537.81;5056981;28;20728;-73
2022/07/24 08:58:21;;;;;;;1.70;1.20;;;22.40;1.00;;;22.49;40.08;101533.16;5063580;28;20424;-73
2022/07/24 09:00:50;;;;;;;1.50;1.00;;;22.40;1.00;;;22.57;41.01;101528.22;5057274;28;20475;-73
2022/07/24 09:03:22;;;;;;;1.60;1.20;;;22.40;1.00;;;22.83;40.23;101528.13;5050835;28;20437;-73
2022/07/24 09:05:57;;;;;;;1.40;1.00;;;22.50;1.00;;;22.84;40.45;101529.78;5047137;28;20455;-74
2022/07/24 09:08:26;;;;;;;2.77;1.40;;;22.50;1.00;;;22.79;39.85;101535.28;5051331;28;20421;-72
2022/07/24 09:11:03;;;;;;;1.80;1.30;;;22.60;1.00;;;22.98;40.25;101534.81;5046845;28;20446;-73
2022/07/24 09:16:22;;;;;;;3.07;1.20;;;22.90;1.00;;;22.96;39.70;101537.84;5062368;28;21040;-72
2022/07/24 09:19:03;;;;;;;2.20;1.20;;;22.90;1.00;;;22.94;40.38;101537.28;5070295;28;20496;-73
2022/07/24 09:21:40;;;;;;;2.13;1.27;;;22.80;1.00;;;23.32;39.98;101531.38;5054586;28;20485;-73
2022/07/24 09:24:15;;;;;;;1.53;1.10;;;23.00;1.00;;;23.50;38.84;101532.81;5066840;28;20780;-73
2022/07/24 09:26:49;;;;;;;2.37;1.20;;;23.20;1.00;;;23.81;38.59;101534.53;5048971;28;20424;-72
2022/07/24 09:29:21;;;;;;;2.60;1.40;;;23.50;1.00;;;23.89;38.22;101521.25;5048098;28;20435;-73
2022/07/24 09:31:57;;;;;;;4.43;1.23;;;23.50;1.00;;;24.05;38.32;101531.22;5050880;28;20458;-72
2022/07/24 09:34:29;;;;;;;1.53;1.07;;;23.70;1.00;;;24.03;38.56;101531.50;5051254;28;20419;-73
2022/07/24 09:37:05;;;;;;;2.90;1.23;;;23.70;1.00;;;23.80;38.29;101524.59;5047743;28;20444;-71
2022/07/24 09:39:37;;;;;;;1.53;0.97;;;23.70;1.00;;;23.63;39.24;101524.00;5044668;28;20773;-71
2022/07/24 09:42:08;;;;;;;1.83;1.30;;;23.50;1.00;;;23.94;39.13;101529.56;5043250;28;20563;-71
2022/07/24 09:44:37;;;;;;;1.60;1.10;;;23.70;1.00;;;23.41;39.12;101528.91;5045255;28;20516;-73
2022/07/24 09:47:08;;;;;;;1.63;1.30;;;23.40;1.00;;;23.43;39.67;101526.66;5042434;28;20805;-72
2022/07/24 09:49:40;;;;;;;2.90;1.40;;;23.30;1.00;;;23.77;39.37;101527.88;5046010;28;20453;-71
2022/07/24 09:52:15;;;;;;;2.17;1.20;;;23.50;1.00;;;24.14;38.57;101521.28;5051181;28;20522;-72
2022/07/24 09:54:47;;;;;;;1.93;1.10;;;23.80;1.00;;;24.40;38.08;101524.88;5051441;28;20942;-73
2022/07/24 09:57:23;;;;;;;1.43;1.10;;;24.00;1.00;;;24.06;37.88;101525.41;5046511;28;20941;-73
2022/07/24 09:59:55;;;;;;;2.10;1.50;;;23.90;1.00;;;23.74;38.75;101522.91;5046574;28;20786;-72
2022/07/24 10:02:29;;;;;;;1.70;1.10;;;23.70;1.00;;;23.66;38.73;101526.22;5043230;28;20469;-72
2022/07/24 10:05:01;;;;;;;1.47;1.17;;;23.60;1.00;;;24.15;38.64;101525.69;5046253;28;20418;-71
2022/07/24 10:07:32;;;;;;;1.47;0.93;;;23.80;1.00;;;24.14;38.19;101527.63;5044413;28;20461;-73
2022/07/24 10:10:02;;;;;;;1.30;0.80;;;23.80;1.00;;;23.90;38.84;101521.00;5052410;28;20417;-72
2022/07/24 10:12:33;;;;;;;2.53;1.80;;;23.70;1.00;;;24.05;38.27;101528.47;5051025;28;20470;-73
2022/07/24 10:15:03;;;;;;;2.33;1.37;;;23.80;1.00;;;24.51;37.90;101519.03;5050625;28;20860;-73
2022/07/24 10:18:18;;;;;;;2.60;1.63;;;24.10;1.00;;;24.80;37.30;101523.94;5037870;28;20463;-73
2022/07/24 10:20:48;;;;;;;2.33;1.70;;;24.40;1.00;;;24.74;37.49;101512.03;5028547;28;20483;-73
2022/07/24 10:23:25;;;;;;;2.60;1.33;;;24.50;1.00;;;25.20;37.37;101509.97;5031703;28;20911;-73
2022/07/24 10:26:04;;;;;;;2.17;1.53;;;24.70;1.00;;;24.84;35.89;101506.47;5026138;28;20448;-71
2022/07/24 10:28:41;;;;;;;1.50;1.00;;;24.70;1.00;;;24.83;37.08;101513.16;5030894;28;20415;-71
2022/07/24 10:31:14;;;;;;;1.70;1.20;;;24.60;1.00;;;24.77;37.21;101507.91;5029831;28;20461;-72